Lexington, South Carolina
Current Conditions -  °F | °C
As of 3:56 PM on Friday 24 Oct 2014 (Local Time) from KCAE Reporting Station
Broken Clouds Broken Clouds  
Wind Chill: 72°   Ceiling: 15000
Heat Index: 72°   Visibility: 10mi
Dew Point: 42°   Wind: 6mph
Humidity: 34%   Direction: NA
Pressure: 29.98"   Gusts: NA
Location:  33.99°N, 81.23°W
Report Text: KCAE 241956Z VRB05KT 10SM BKN150 BKN220 22/06 A2998 RMK AO2 SLP152 T02220056
Loading
Personal Weather Stations






























Interactive Weather Map
Tropical Storm Tracking
New forecast layout! Learn more

10-Day Weather Forecast

Advertisements
Track Severe Weather on mobile